Time;durP1;ratioP1;P1;durP2;ratioP2;P2;SDS_P1;SDS_P2;PMS_P1;PMS_P2;Temp;Humidity;BMP_temperature;BMP_pressure;BME280_temperature;BME280_humidity;BME280_pressure;Samples;Min_cycle;Max_cycle;Signal;HPM_P1;HPM_P2
2021/08/25 00:01:50;;;;;;;5.70;5.13;;;;;;;;;;5054056;28;20242;-79
2021/08/25 00:04:18;;;;;;;5.27;4.77;;;;;;;;;;5054381;28;20235;-79
2021/08/25 00:06:45;;;;;;;5.80;5.30;;;;;;;;;;5054038;28;20255;-79
2021/08/25 00:09:12;;;;;;;5.57;4.90;;;;;;;;;;5054131;28;20675;-79
2021/08/25 00:11:38;;;;;;;5.37;4.97;;;;;;;;;;5054509;28;20222;-78
2021/08/25 00:14:05;;;;;;;9.03;5.60;;;;;;;;;;5053166;28;20611;-79
2021/08/25 00:16:32;;;;;;;6.10;5.40;;;;;;;;;;5053642;28;20243;-79
2021/08/25 00:18:58;;;;;;;5.73;5.23;;;;;;;;;;5035556;28;20675;-79
2021/08/25 00:21:26;;;;;;;5.23;4.80;;;;;;;;;;5036281;28;20207;-79
2021/08/25 00:23:53;;;;;;;5.97;5.47;;;;;;;;;;5053650;28;20243;-78
2021/08/25 00:26:19;;;;;;;5.90;5.40;;;;;;;;;;5053463;28;20257;-78
2021/08/25 00:28:46;;;;;;;6.53;5.07;;;;;;;;;;5053440;28;20566;-79
2021/08/25 00:31:14;;;;;;;5.47;5.07;;;;;;;;;;5053002;28;20246;-78
2021/08/25 00:33:40;;;;;;;5.53;5.13;;;;;;;;;;5035746;28;20203;-78
2021/08/25 00:36:07;;;;;;;7.00;5.50;;;;;;;;;;5053430;28;20219;-78
2021/08/25 00:38:35;;;;;;;6.03;5.33;;;;;;;;;;5053399;28;20239;-79
2021/08/25 00:41:03;;;;;;;7.20;5.17;;;;;;;;;;5053222;28;20219;-79
2021/08/25 00:43:31;;;;;;;6.03;5.40;;;;;;;;;;5035564;28;20207;-79
2021/08/25 00:45:58;;;;;;;6.33;5.73;;;;;;;;;;5053750;28;20714;-79
2021/08/25 00:48:25;;;;;;;8.80;5.40;;;;;;;;;;5053207;28;20675;-80
2021/08/25 00:50:53;;;;;;;6.40;5.23;;;;;;;;;;5035693;28;20234;-79
2021/08/25 00:53:22;;;;;;;6.43;4.87;;;;;;;;;;5053546;28;20247;-79
2021/08/25 00:55:50;;;;;;;5.47;4.97;;;;;;;;;;5053572;28;20231;-79
2021/08/25 00:58:17;;;;;;;6.77;4.97;;;;;;;;;;5052857;28;20207;-79
2021/08/25 01:00:46;;;;;;;9.43;5.47;;;;;;;;;;5035101;28;20611;-79
2021/08/25 01:03:14;;;;;;;6.53;5.17;;;;;;;;;;5053045;28;20588;-78
2021/08/25 01:05:42;;;;;;;7.13;5.23;;;;;;;;;;5053037;28;20262;-78
2021/08/25 01:08:11;;;;;;;6.37;5.77;;;;;;;;;;5052730;28;20722;-79
2021/08/25 01:10:37;;;;;;;6.13;5.33;;;;;;;;;;5052806;28;20223;-79
2021/08/25 01:13:07;;;;;;;5.67;5.17;;;;;;;;;;5053084;28;20243;-78
2021/08/25 01:15:38;;;;;;;5.90;5.30;;;;;;;;;;5053021;28;20230;-78
2021/08/25 01:18:06;;;;;;;6.17;5.60;;;;;;;;;;5052946;28;20211;-78
2021/08/25 01:20:33;;;;;;;5.90;5.37;;;;;;;;;;5051987;28;20218;-79
2021/08/25 01:23:00;;;;;;;5.97;5.40;;;;;;;;;;5034627;28;20199;-80
2021/08/25 01:25:28;;;;;;;6.63;6.03;;;;;;;;;;5052356;28;20246;-79
2021/08/25 01:27:56;;;;;;;6.50;5.83;;;;;;;;;;5032961;28;20239;-79
2021/08/25 01:30:26;;;;;;;6.73;6.20;;;;;;;;;;5032979;28;20240;-79
2021/08/25 01:32:53;;;;;;;6.40;5.80;;;;;;;;;;5014905;28;20200;-79
2021/08/25 01:35:19;;;;;;;9.17;6.30;;;;;;;;;;5032544;28;20244;-79
2021/08/25 01:37:47;;;;;;;6.67;5.43;;;;;;;;;;5032922;28;20208;-79
2021/08/25 01:40:14;;;;;;;5.57;5.17;;;;;;;;;;5032467;28;20250;-78
2021/08/25 01:42:43;;;;;;;8.53;5.70;;;;;;;;;;5032857;28;20204;-78
2021/08/25 01:45:10;;;;;;;6.13;5.63;;;;;;;;;;5032602;28;20235;-80
2021/08/25 01:47:38;;;;;;;6.43;5.93;;;;;;;;;;5032588;28;20251;-79
2021/08/25 01:50:05;;;;;;;6.90;6.20;;;;;;;;;;5032750;28;20719;-78
2021/08/25 01:52:32;;;;;;;6.03;5.53;;;;;;;;;;5032683;28;20243;-79
2021/08/25 01:54:58;;;;;;;6.13;5.63;;;;;;;;;;5032184;28;20212;-79
2021/08/25 01:57:25;;;;;;;6.53;5.87;;;;;;;;;;5032019;28;20236;-78
2021/08/25 01:59:51;;;;;;;6.87;6.27;;;;;;;;;;5031968;28;20208;-79
2021/08/25 02:02:18;;;;;;;6.83;5.60;;;;;;;;;;5032397;28;20262;-78
2021/08/25 02:04:46;;;;;;;6.17;5.67;;;;;;;;;;5032369;28;20242;-78
2021/08/25 02:07:13;;;;;;;6.67;6.07;;;;;;;;;;5031864;28;20639;-79
2021/08/25 02:09:39;;;;;;;6.90;6.33;;;;;;;;;;5032074;28;20212;-79
2021/08/25 02:12:06;;;;;;;9.07;5.53;;;;;;;;;;5032127;28;20212;-79
2021/08/25 02:14:34;;;;;;;6.33;5.70;;;;;;;;;;5032337;28;20244;-79
2021/08/25 02:17:01;;;;;;;5.97;5.43;;;;;;;;;;5014390;28;20204;-80
2021/08/25 02:19:27;;;;;;;9.60;5.90;;;;;;;;;;5032127;28;20251;-79
2021/08/25 02:21:55;;;;;;;9.23;6.03;;;;;;;;;;5032090;28;20240;-79
2021/08/25 02:24:22;;;;;;;9.43;6.30;;;;;;;;;;5031968;28;20236;-80
2021/08/25 02:26:49;;;;;;;7.07;6.37;;;;;;;;;;5042566;28;20247;-79
2021/08/25 02:29:15;;;;;;;6.33;5.90;;;;;;;;;;5051677;28;20235;-79
2021/08/25 02:31:42;;;;;;;6.10;5.50;;;;;;;;;;5053032;28;20239;-79
2021/08/25 02:34:08;;;;;;;6.17;5.60;;;;;;;;;;5037861;28;20667;-79
2021/08/25 02:36:35;;;;;;;6.60;6.10;;;;;;;;;;5037846;28;20218;-79
2021/08/25 02:39:03;;;;;;;6.43;5.60;;;;;;;;;;5055683;28;20242;-79
2021/08/25 02:41:30;;;;;;;7.37;5.93;;;;;;;;;;5055039;28;20242;-79
2021/08/25 02:43:57;;;;;;;7.27;6.37;;;;;;;;;;5037407;28;20199;-79
2021/08/25 02:46:23;;;;;;;6.30;5.73;;;;;;;;;;5054939;28;20730;-79
2021/08/25 02:48:50;;;;;;;6.57;5.93;;;;;;;;;;5037488;28;20221;-79
2021/08/25 02:51:17;;;;;;;6.30;5.73;;;;;;;;;;5055252;28;20262;-79
2021/08/25 02:53:43;;;;;;;6.20;5.67;;;;;;;;;;5055595;28;20611;-78
2021/08/25 02:56:11;;;;;;;6.00;5.30;;;;;;;;;;5055700;28;20570;-79
2021/08/25 02:58:38;;;;;;;6.50;5.90;;;;;;;;;;5055273;28;20281;-78
2021/08/25 03:01:05;;;;;;;6.33;5.80;;;;;;;;;;5054677;28;20600;-78
2021/08/25 03:03:31;;;;;;;6.40;5.83;;;;;;;;;;5054480;28;20913;-78
2021/08/25 03:05:58;;;;;;;6.10;5.50;;;;;;;;;;5037427;28;20204;-78
2021/08/25 03:08:25;;;;;;;6.30;5.70;;;;;;;;;;5054768;28;20216;-79
2021/08/25 03:10:51;;;;;;;6.40;5.90;;;;;;;;;;5054880;28;20219;-78
2021/08/25 03:13:19;;;;;;;7.33;5.90;;;;;;;;;;5055386;28;20326;-79
2021/08/25 03:15:46;;;;;;;6.33;5.80;;;;;;;;;;5036739;28;20204;-78
2021/08/25 03:18:13;;;;;;;6.57;5.80;;;;;;;;;;5054858;28;20207;-78
2021/08/25 03:20:40;;;;;;;8.33;5.60;;;;;;;;;;5054706;28;20252;-78
2021/08/25 03:23:06;;;;;;;6.47;5.87;;;;;;;;;;5054644;28;20215;-78
2021/08/25 03:25:33;;;;;;;8.00;6.00;;;;;;;;;;5054501;28;20207;-78
2021/08/25 03:28:00;;;;;;;10.40;6.13;;;;;;;;;;5055069;28;20255;-78
2021/08/25 03:30:28;;;;;;;10.93;6.50;;;;;;;;;;5054284;28;20639;-78
2021/08/25 03:32:54;;;;;;;8.43;6.03;;;;;;;;;;5054584;28;20615;-79
2021/08/25 03:35:21;;;;;;;7.40;5.93;;;;;;;;;;5054740;28;20235;-78
2021/08/25 03:37:48;;;;;;;6.10;5.40;;;;;;;;;;5054152;28;20231;-78
2021/08/25 03:40:14;;;;;;;6.87;5.77;;;;;;;;;;5054912;28;20239;-78
2021/08/25 03:42:41;;;;;;;6.37;5.80;;;;;;;;;;5053731;28;20243;-79
2021/08/25 03:45:08;;;;;;;6.00;5.40;;;;;;;;;;5054219;28;20211;-77
2021/08/25 03:47:36;;;;;;;6.37;5.40;;;;;;;;;;5054140;28;20231;-78
2021/08/25 03:50:03;;;;;;;5.87;5.37;;;;;;;;;;5054375;28;20255;-78
2021/08/25 03:52:30;;;;;;;6.93;5.63;;;;;;;;;;5053710;28;20238;-79
2021/08/25 03:54:56;;;;;;;7.00;5.80;;;;;;;;;;5036023;28;20729;-79
2021/08/25 03:57:23;;;;;;;7.40;5.43;;;;;;;;;;5036284;28;20191;-78
2021/08/25 03:59:49;;;;;;;6.00;5.50;;;;;;;;;;5054058;28;20211;-78
2021/08/25 04:02:16;;;;;;;5.80;5.17;;;;;;;;;;5054002;28;20230;-78
2021/08/25 04:04:44;;;;;;;6.10;5.60;;;;;;;;;;5053972;28;20208;-78
2021/08/25 04:07:12;;;;;;;6.87;5.40;;;;;;;;;;5053250;28;20259;-78
2021/08/25 04:09:39;;;;;;;6.03;5.53;;;;;;;;;;5053847;28;20231;-78
2021/08/25 04:12:06;;;;;;;5.97;5.50;;;;;;;;;;5053344;28;20230;-78
2021/08/25 04:14:32;;;;;;;8.97;5.33;;;;;;;;;;5053752;28;20639;-78
2021/08/25 04:16:59;;;;;;;5.93;5.43;;;;;;;;;;5053303;28;20231;-79
2021/08/25 04:19:26;;;;;;;6.17;5.60;;;;;;;;;;5053963;28;20234;-78
2021/08/25 04:21:54;;;;;;;5.97;5.47;;;;;;;;;;5053563;28;20234;-79
2021/08/25 04:24:21;;;;;;;7.13;5.30;;;;;;;;;;5053358;28;20242;-77
2021/08/25 04:26:47;;;;;;;6.57;5.33;;;;;;;;;;5053266;28;20238;-78
2021/08/25 04:29:14;;;;;;;7.33;6.03;;;;;;;;;;5053362;28;20446;-78
2021/08/25 04:31:41;;;;;;;6.10;5.50;;;;;;;;;;5052836;28;20630;-78
2021/08/25 04:34:09;;;;;;;6.20;5.60;;;;;;;;;;5052850;28;20691;-77
2021/08/25 04:36:35;;;;;;;6.10;5.50;;;;;;;;;;5035799;28;20210;-79
2021/08/25 04:39:04;;;;;;;6.33;5.77;;;;;;;;;;5053636;28;20218;-78
2021/08/25 04:41:30;;;;;;;6.20;5.60;;;;;;;;;;5052963;28;20250;-78
2021/08/25 04:43:57;;;;;;;8.50;5.53;;;;;;;;;;5052729;28;20239;-78
2021/08/25 04:46:24;;;;;;;9.73;6.07;;;;;;;;;;5052724;28;20242;-78
2021/08/25 04:48:50;;;;;;;6.10;5.50;;;;;;;;;;5053127;28;20251;-79
2021/08/25 04:51:17;;;;;;;9.63;5.80;;;;;;;;;;5035314;28;20228;-78
2021/08/25 04:53:44;;;;;;;6.27;5.67;;;;;;;;;;5052811;28;20239;-76
2021/08/25 04:56:14;;;;;;;5.90;5.40;;;;;;;;;;5033969;28;20218;-78
2021/08/25 04:58:41;;;;;;;7.90;5.20;;;;;;;;;;5034743;28;20195;-79
2021/08/25 05:01:08;;;;;;;7.43;5.23;;;;;;;;;;5052134;28;20239;-77
2021/08/25 05:03:35;;;;;;;5.90;5.30;;;;;;;;;;5052468;28;20207;-79
2021/08/25 05:06:07;;;;;;;5.80;5.07;;;;;;;;;;5051985;28;20594;-78
2021/08/25 05:08:34;;;;;;;8.20;5.50;;;;;;;;;;5034419;28;20254;-77
2021/08/25 05:11:00;;;;;;;6.37;5.33;;;;;;;;;;5052006;28;20246;-77
2021/08/25 05:13:28;;;;;;;8.70;5.33;;;;;;;;;;5052382;28;20656;-78
2021/08/25 05:15:55;;;;;;;9.37;5.87;;;;;;;;;;5052481;28;20721;-78
2021/08/25 05:18:22;;;;;;;6.17;5.17;;;;;;;;;;5052648;28;20171;-79
2021/08/25 05:20:48;;;;;;;8.40;5.77;;;;;;;;;;5052940;28;20207;-79
2021/08/25 05:23:15;;;;;;;7.17;4.97;;;;;;;;;;5034400;28;20214;-78
2021/08/25 05:25:41;;;;;;;7.10;5.83;;;;;;;;;;5052403;28;20226;-80
2021/08/25 05:28:08;;;;;;;9.13;6.07;;;;;;;;;;5034325;28;20633;-78
2021/08/25 05:30:36;;;;;;;6.93;5.70;;;;;;;;;;5052344;28;20203;-79
2021/08/25 05:33:03;;;;;;;5.70;5.13;;;;;;;;;;5051807;28;20242;-78
2021/08/25 05:35:29;;;;;;;6.10;5.50;;;;;;;;;;5051815;28;20243;-78
2021/08/25 05:37:56;;;;;;;7.47;5.80;;;;;;;;;;5051600;28;20277;-79
2021/08/25 05:40:23;;;;;;;7.00;5.63;;;;;;;;;;5051891;28;20231;-79
2021/08/25 05:42:50;;;;;;;6.93;5.90;;;;;;;;;;5051640;28;20219;-78
2021/08/25 05:45:16;;;;;;;5.80;5.20;;;;;;;;;;5034329;28;20219;-78
2021/08/25 05:47:44;;;;;;;6.37;5.47;;;;;;;;;;5051634;28;20259;-78
2021/08/25 05:50:11;;;;;;;6.27;5.67;;;;;;;;;;5051751;28;20259;-78
2021/08/25 05:52:38;;;;;;;5.77;5.30;;;;;;;;;;5052062;28;20207;-78
2021/08/25 05:55:05;;;;;;;6.97;5.30;;;;;;;;;;5051637;28;20218;-78
2021/08/25 05:57:31;;;;;;;10.43;5.17;;;;;;;;;;5051274;28;20207;-78
2021/08/25 05:59:58;;;;;;;8.77;5.20;;;;;;;;;;5034097;28;20601;-78
2021/08/25 06:02:25;;;;;;;7.30;4.93;;;;;;;;;;5052188;28;20614;-78
2021/08/25 06:04:53;;;;;;;6.23;5.20;;;;;;;;;;5051927;28;20245;-77
2021/08/25 06:07:19;;;;;;;6.50;5.30;;;;;;;;;;5053941;28;20314;-79
2021/08/25 06:09:46;;;;;;;8.13;5.53;;;;;;;;;;5055810;28;20238;-77
2021/08/25 06:12:12;;;;;;;10.77;5.10;;;;;;;;;;5054757;28;20249;-76
2021/08/25 06:14:39;;;;;;;6.53;5.23;;;;;;;;;;5055584;28;20235;-77
2021/08/25 06:17:06;;;;;;;11.97;5.40;;;;;;;;;;5055671;28;20679;-77
2021/08/25 06:19:33;;;;;;;6.17;4.97;;;;;;;;;;5055714;28;20246;-76
2021/08/25 06:22:01;;;;;;;6.77;4.90;;;;;;;;;;5055514;28;20212;-77
2021/08/25 06:24:27;;;;;;;5.13;4.83;;;;;;;;;;5055427;28;20249;-76
2021/08/25 06:26:54;;;;;;;6.47;4.87;;;;;;;;;;5053271;28;20304;-78
2021/08/25 06:29:20;;;;;;;6.60;4.83;;;;;;;;;;5055157;28;20258;-77
2021/08/25 06:31:47;;;;;;;5.67;4.63;;;;;;;;;;5053765;28;20207;-76
2021/08/25 06:34:14;;;;;;;5.43;5.03;;;;;;;;;;5055407;28;20584;-76
2021/08/25 06:36:40;;;;;;;7.13;5.07;;;;;;;;;;5054706;28;20231;-76
2021/08/25 06:39:09;;;;;;;8.27;4.67;;;;;;;;;;5054918;28;20234;-76
2021/08/25 06:41:35;;;;;;;7.10;4.90;;;;;;;;;;5055067;28;20249;-77
2021/08/25 06:44:02;;;;;;;6.53;4.23;;;;;;;;;;5053665;28;20208;-77
2021/08/25 06:46:29;;;;;;;5.03;4.63;;;;;;;;;;5054980;28;20215;-78
2021/08/25 06:48:56;;;;;;;5.00;4.47;;;;;;;;;;5053851;28;20608;-77
2021/08/25 06:51:22;;;;;;;8.20;4.60;;;;;;;;;;5053363;28;20219;-77
2021/08/25 06:53:49;;;;;;;5.13;4.73;;;;;;;;;;5055070;28;20246;-76
2021/08/25 06:56:17;;;;;;;6.80;4.80;;;;;;;;;;5054677;28;20230;-77
2021/08/25 06:58:44;;;;;;;8.40;5.20;;;;;;;;;;5054738;28;20239;-76
2021/08/25 07:01:10;;;;;;;13.67;6.00;;;;;;;;;;5054744;28;20261;-76
2021/08/25 07:03:37;;;;;;;10.53;5.10;;;;;;;;;;5054663;28;20377;-76
2021/08/25 07:06:03;;;;;;;6.23;5.10;;;;;;;;;;5053607;28;20203;-75
2021/08/25 07:08:30;;;;;;;8.00;5.20;;;;;;;;;;5054593;28;20251;-76
2021/08/25 07:10:57;;;;;;;6.00;5.27;;;;;;;;;;5054212;28;20618;-76
2021/08/25 07:13:25;;;;;;;5.73;5.13;;;;;;;;;;5054284;28;20242;-76
2021/08/25 07:15:52;;;;;;;9.37;5.27;;;;;;;;;;5054073;28;20226;-76
2021/08/25 07:18:18;;;;;;;8.47;5.43;;;;;;;;;;5053002;28;20258;-77
2021/08/25 07:20:45;;;;;;;7.20;5.43;;;;;;;;;;5053066;28;20241;-76
2021/08/25 07:23:12;;;;;;;6.17;5.30;;;;;;;;;;5054333;28;20234;-77
2021/08/25 07:25:38;;;;;;;7.87;5.80;;;;;;;;;;5053947;28;20552;-76
2021/08/25 07:28:05;;;;;;;7.10;5.93;;;;;;;;;;5054259;28;20214;-77
2021/08/25 07:30:33;;;;;;;7.53;5.60;;;;;;;;;;5036765;28;20207;-76
2021/08/25 07:33:00;;;;;;;6.47;5.20;;;;;;;;;;5054797;28;20242;-76
2021/08/25 07:35:29;;;;;;;7.40;4.53;;;;;;;;;;5053830;28;20237;-76
2021/08/25 07:37:56;;;;;;;6.83;5.00;;;;;;;;;;5054072;28;20234;-76
2021/08/25 07:40:23;;;;;;;6.80;4.90;;;;;;;;;;5053834;28;20239;-76
2021/08/25 07:42:49;;;;;;;6.40;4.87;;;;;;;;;;5053998;28;20234;-77
2021/08/25 07:45:16;;;;;;;5.27;4.63;;;;;;;;;;5053574;28;20207;-76
2021/08/25 07:47:46;;;;;;;10.20;5.40;;;;;;;;;;5053639;28;20242;-76
2021/08/25 07:50:13;;;;;;;7.53;5.10;;;;;;;;;;5053227;28;20715;-76
2021/08/25 07:52:39;;;;;;;5.83;5.10;;;;;;;;;;5053756;28;20244;-77
2021/08/25 07:55:06;;;;;;;5.78;5.18;;;;;;;;;;5052577;28;20763;-77
2021/08/25 07:57:33;;;;;;;5.93;5.10;;;;;;;;;;5052971;28;20756;-78
2021/08/25 08:00:00;;;;;;;16.77;5.10;;;;;;;;;;5053149;28;20698;-79
2021/08/25 08:02:26;;;;;;;5.13;4.70;;;;;;;;;;5053090;28;20342;-80
2021/08/25 08:04:54;;;;;;;7.83;5.27;;;;;;;;;;5035798;28;20655;-78
2021/08/25 08:07:21;;;;;;;7.43;4.83;;;;;;;;;;5035388;28;20206;-78
2021/08/25 08:09:47;;;;;;;5.07;4.67;;;;;;;;;;5035002;28;20254;-76
2021/08/25 08:12:14;;;;;;;6.47;4.70;;;;;;;;;;5052550;28;20238;-78
2021/08/25 08:14:41;;;;;;;5.80;4.80;;;;;;;;;;5053154;28;20204;-78
2021/08/25 08:17:08;;;;;;;5.80;4.97;;;;;;;;;;5052433;28;20265;-77
2021/08/25 08:19:34;;;;;;;8.00;4.60;;;;;;;;;;5051606;28;20188;-78
2021/08/25 08:22:03;;;;;;;5.43;4.93;;;;;;;;;;5034964;28;20188;-76
2021/08/25 08:24:30;;;;;;;5.90;4.60;;;;;;;;;;5053312;28;20215;-77
2021/08/25 08:26:58;;;;;;;5.60;5.07;;;;;;;;;;5031184;28;20712;-78
2021/08/25 08:29:25;;;;;;;4.70;4.23;;;;;;;;;;5032434;28;20597;-78
2021/08/25 08:31:51;;;;;;;6.07;4.93;;;;;;;;;;5032815;28;20246;-77
2021/08/25 08:34:19;;;;;;;5.90;4.40;;;;;;;;;;5031732;28;20184;-78
2021/08/25 08:36:46;;;;;;;7.43;4.67;;;;;;;;;;5032586;28;20235;-78
2021/08/25 08:39:14;;;;;;;5.13;4.57;;;;;;;;;;5030986;28;20180;-78
2021/08/25 08:41:41;;;;;;;8.70;4.50;;;;;;;;;;5030098;28;20200;-79
2021/08/25 08:44:10;;;;;;;6.30;4.40;;;;;;;;;;5032228;28;20188;-79
2021/08/25 08:46:38;;;;;;;4.23;3.83;;;;;;;;;;5031025;28;20220;-79
2021/08/25 08:49:05;;;;;;;5.67;4.60;;;;;;;;;;5030878;28;20235;-79
2021/08/25 08:51:31;;;;;;;4.97;4.57;;;;;;;;;;5031530;28;20255;-80
2021/08/25 08:53:58;;;;;;;7.23;4.13;;;;;;;;;;5030567;28;20230;-80
2021/08/25 08:56:26;;;;;;;6.83;4.70;;;;;;;;;;5030624;28;20192;-79
2021/08/25 08:58:56;;;;;;;7.13;4.67;;;;;;;;;;5030977;28;20326;-79
2021/08/25 09:01:23;;;;;;;7.17;4.30;;;;;;;;;;5047264;28;20208;-78
2021/08/25 09:03:49;;;;;;;4.70;4.20;;;;;;;;;;5032177;28;20243;-79
2021/08/25 09:06:16;;;;;;;4.73;4.03;;;;;;;;;;5031971;28;20613;-79
2021/08/25 09:08:43;;;;;;;4.50;3.87;;;;;;;;;;5032004;28;20247;-78
2021/08/25 09:11:10;;;;;;;7.93;4.40;;;;;;;;;;5047327;28;20211;-79
2021/08/25 09:13:42;;;;;;;5.77;4.40;;;;;;;;;;5031030;28;20227;-78
2021/08/25 09:16:09;;;;;;;5.33;4.10;;;;;;;;;;5031917;28;20239;-79
2021/08/25 09:18:36;;;;;;;4.27;3.87;;;;;;;;;;5031949;28;20212;-80
2021/08/25 09:21:02;;;;;;;4.13;3.73;;;;;;;;;;5030769;28;20307;-78
2021/08/25 09:23:30;;;;;;;7.13;3.97;;;;;;;;;;5031913;28;20676;-79
2021/08/25 09:25:58;;;;;;;4.87;3.97;;;;;;;;;;5035020;28;20257;-79
2021/08/25 09:28:27;;;;;;;4.20;3.60;;;;;;;;;;5033748;28;20207;-80
2021/08/25 09:30:56;;;;;;;7.03;3.50;;;;;;;;;;5051684;28;20255;-78
2021/08/25 09:33:24;;;;;;;3.33;3.03;;;;;;;;;;5049850;28;20206;-79
2021/08/25 09:35:50;;;;;;;5.37;3.83;;;;;;;;;;5051576;28;20211;-81
2021/08/25 09:38:18;;;;;;;7.60;3.73;;;;;;;;;;5051215;28;20215;-82
2021/08/25 09:40:46;;;;;;;4.07;3.67;;;;;;;;;;5050952;28;20203;-78
2021/08/25 09:43:12;;;;;;;5.53;4.03;;;;;;;;;;5033554;28;20269;-79
2021/08/25 09:45:39;;;;;;;4.50;3.60;;;;;;;;;;5050282;28;20284;-79
2021/08/25 09:48:07;;;;;;;12.90;3.90;;;;;;;;;;5051113;28;20234;-79
2021/08/25 09:50:34;;;;;;;4.90;3.77;;;;;;;;;;5033445;28;20699;-78
2021/08/25 09:53:01;;;;;;;5.50;3.30;;;;;;;;;;5033559;28;20235;-77
2021/08/25 09:55:30;;;;;;;6.50;3.60;;;;;;;;;;5051403;28;20765;-78
2021/08/25 09:57:57;;;;;;;6.38;3.70;;;;;;;;;;5033437;28;20238;-79
2021/08/25 10:00:24;;;;;;;5.32;3.70;;;;;;;;;;5051294;28;20253;-79
2021/08/25 10:02:51;;;;;;;6.25;3.80;;;;;;;;;;5051599;28;20214;-79
2021/08/25 10:05:25;;;;;;;4.80;3.40;;;;;;;;;;5049702;28;20199;-79
2021/08/25 10:07:52;;;;;;;3.93;3.53;;;;;;;;;;5033494;28;20283;-80
2021/08/25 10:10:19;;;;;;;5.65;3.30;;;;;;;;;;5033011;28;20247;-80
2021/08/25 10:12:48;;;;;;;3.72;3.45;;;;;;;;;;5033312;28;20191;-78
2021/08/25 10:15:34;;;;;;;5.22;4.07;;;;;;;;;;5032812;28;20729;-79
2021/08/25 10:18:20;;;;;;;4.82;3.75;;;;;;;;;;5033191;28;20245;-80
2021/08/25 10:20:48;;;;;;;4.10;3.60;;;;;;;;;;5033517;28;20611;-79
2021/08/25 10:23:15;;;;;;;9.25;3.75;;;;;;;;;;5031635;28;20234;-79
2021/08/25 10:25:56;;;;;;;4.63;4.10;;;;;;;;;;5049307;28;20239;-78
2021/08/25 10:28:23;;;;;;;4.75;3.33;;;;;;;;;;5031113;28;20231;-79
2021/08/25 10:30:57;;;;;;;4.93;3.50;;;;;;;;;;5049591;28;20251;-76
2021/08/25 10:33:24;;;;;;;3.58;3.25;;;;;;;;;;5032313;28;20226;-79
2021/08/25 10:35:52;;;;;;;5.25;3.28;;;;;;;;;;5051020;28;20241;-76
2021/08/25 10:38:20;;;;;;;5.75;3.40;;;;;;;;;;5050839;28;20242;-75
2021/08/25 10:40:48;;;;;;;3.80;3.50;;;;;;;;;;5050421;28;20250;-75
2021/08/25 10:43:34;;;;;;;4.05;3.50;;;;;;;;;;5032802;28;20203;-76
2021/08/25 10:46:01;;;;;;;3.35;3.05;;;;;;;;;;5033067;28;20237;-77
2021/08/25 10:48:38;;;;;;;5.78;3.40;;;;;;;;;;5033161;28;20188;-77
2021/08/25 10:51:22;;;;;;;5.30;3.28;;;;;;;;;;5032596;28;20258;-74
2021/08/25 10:53:51;;;;;;;3.53;3.22;;;;;;;;;;5036189;28;20192;-78
2021/08/25 10:56:19;;;;;;;3.42;3.13;;;;;;;;;;5035337;28;20200;-79
2021/08/25 10:58:46;;;;;;;4.60;3.28;;;;;;;;;;5036154;28;20659;-80
2021/08/25 11:01:23;;;;;;;4.43;3.85;;;;;;;;;;5035574;28;20596;-80
2021/08/25 11:03:50;;;;;;;3.53;3.20;;;;;;;;;;5036050;28;20203;-80
2021/08/25 11:06:35;;;;;;;4.38;3.47;;;;;;;;;;5069153;28;20235;-80
2021/08/25 11:09:21;;;;;;;5.43;3.30;;;;;;;;;;5036057;28;20269;-79
2021/08/25 11:11:49;;;;;;;3.67;3.35;;;;;;;;;;5052973;28;20304;-80
2021/08/25 11:14:20;;;;;;;4.00;3.10;;;;;;;;;;5053906;28;20655;-80
2021/08/25 11:16:47;;;;;;;3.30;3.10;;;;;;;;;;5053186;28;20235;-80
2021/08/25 11:19:20;;;;;;;3.30;3.10;;;;;;;;;;5035306;28;20230;-80
2021/08/25 11:21:48;;;;;;;5.65;3.55;;;;;;;;;;5035313;28;20203;-80
2021/08/25 11:24:15;;;;;;;3.70;3.40;;;;;;;;;;5035450;28;20663;-80
2021/08/25 11:26:42;;;;;;;3.53;3.17;;;;;;;;;;5068495;28;20254;-80
2021/08/25 11:29:15;;;;;;;3.53;3.15;;;;;;;;;;5068806;28;20261;-80
2021/08/25 11:31:42;;;;;;;5.93;3.40;;;;;;;;;;5068178;28;20609;-79
2021/08/25 11:34:11;;;;;;;3.75;3.42;;;;;;;;;;5053792;28;20235;-78
2021/08/25 11:36:51;;;;;;;3.42;3.13;;;;;;;;;;5053466;28;20218;-77
2021/08/25 11:39:19;;;;;;;3.30;3.05;;;;;;;;;;5035258;28;20284;-80
2021/08/25 11:41:45;;;;;;;5.57;3.40;;;;;;;;;;5053187;28;20233;-80
2021/08/25 11:44:12;;;;;;;4.50;3.95;;;;;;;;;;5053327;28;20670;-79
2021/08/25 11:46:39;;;;;;;3.53;3.20;;;;;;;;;;5035900;28;20219;-80
2021/08/25 11:49:06;;;;;;;5.38;3.40;;;;;;;;;;5035305;28;20246;-79
2021/08/25 11:51:33;;;;;;;6.32;3.45;;;;;;;;;;5069095;28;20603;-80
2021/08/25 11:54:00;;;;;;;3.65;3.35;;;;;;;;;;5035613;28;20199;-80
2021/08/25 11:56:28;;;;;;;4.65;3.20;;;;;;;;;;5053441;28;20748;-78
2021/08/25 11:59:08;;;;;;;3.40;3.10;;;;;;;;;;5035925;28;20218;-81
2021/08/25 12:01:35;;;;;;;4.75;3.35;;;;;;;;;;5035292;28;20234;-79
2021/08/25 12:04:02;;;;;;;3.60;3.15;;;;;;;;;;5053174;28;20696;-80
2021/08/25 12:06:41;;;;;;;3.80;3.50;;;;;;;;;;5053814;28;20238;-80
2021/08/25 12:09:08;;;;;;;4.38;3.20;;;;;;;;;;5034618;28;20596;-79
2021/08/25 12:11:53;;;;;;;3.30;3.08;;;;;;;;;;5035278;28;20242;-79
2021/08/25 12:14:20;;;;;;;5.65;3.40;;;;;;;;;;5035482;28;20199;-78
2021/08/25 12:17:01;;;;;;;6.30;3.80;;;;;;;;;;5068571;28;20643;-79
2021/08/25 12:19:27;;;;;;;6.13;3.50;;;;;;;;;;5034985;28;20666;-77
2021/08/25 12:21:54;;;;;;;3.42;3.20;;;;;;;;;;5035209;28;20188;-77
2021/08/25 12:24:21;;;;;;;3.80;3.20;;;;;;;;;;5068227;28;20739;-79
2021/08/25 12:26:54;;;;;;;3.55;3.20;;;;;;;;;;5031351;28;20659;-79
2021/08/25 12:29:28;;;;;;;6.35;3.08;;;;;;;;;;5031595;28;20200;-79
2021/08/25 12:31:56;;;;;;;3.45;3.15;;;;;;;;;;5032124;28;20259;-79
2021/08/25 12:34:23;;;;;;;4.35;3.40;;;;;;;;;;5030759;28;20232;-78
2021/08/25 12:36:55;;;;;;;4.65;3.22;;;;;;;;;;5032121;28;20235;-79
2021/08/25 12:39:22;;;;;;;7.18;3.15;;;;;;;;;;5030611;28;20278;-79
2021/08/25 12:41:50;;;;;;;4.15;3.05;;;;;;;;;;5032188;28;20239;-79
2021/08/25 12:44:18;;;;;;;5.35;3.15;;;;;;;;;;5032020;28;20236;-75
2021/08/25 12:46:49;;;;;;;6.80;3.53;;;;;;;;;;5032389;28;20763;-78
2021/08/25 12:49:17;;;;;;;4.93;3.30;;;;;;;;;;5031018;28;20200;-78
2021/08/25 12:51:44;;;;;;;3.53;3.13;;;;;;;;;;5032777;28;20695;-78
2021/08/25 12:54:11;;;;;;;3.70;3.40;;;;;;;;;;5032541;28;20242;-78
2021/08/25 12:56:38;;;;;;;4.25;3.42;;;;;;;;;;5032507;28;20217;-78
2021/08/25 12:59:05;;;;;;;4.97;3.45;;;;;;;;;;5031350;28;20184;-78
2021/08/25 13:01:33;;;;;;;5.22;3.30;;;;;;;;;;5032019;28;20335;-79
2021/08/25 13:04:03;;;;;;;3.83;3.50;;;;;;;;;;5030539;28;20188;-78
2021/08/25 13:06:29;;;;;;;3.55;3.25;;;;;;;;;;5032630;28;20211;-78
2021/08/25 13:08:59;;;;;;;3.95;3.17;;;;;;;;;;5030111;28;20566;-77
2021/08/25 13:11:25;;;;;;;3.88;3.47;;;;;;;;;;5029592;28;20322;-78
2021/08/25 13:13:52;;;;;;;3.53;3.13;;;;;;;;;;5032193;28;20262;-79
2021/08/25 13:16:19;;;;;;;3.85;3.45;;;;;;;;;;5030281;28;20196;-81
2021/08/25 13:18:47;;;;;;;3.92;3.60;;;;;;;;;;5030580;28;20254;-80
2021/08/25 13:21:14;;;;;;;8.68;3.65;;;;;;;;;;5031873;28;20236;-78
2021/08/25 13:23:42;;;;;;;4.75;3.83;;;;;;;;;;5030338;28;20671;-79
2021/08/25 13:26:08;;;;;;;5.35;3.65;;;;;;;;;;5030506;28;20232;-79
2021/08/25 13:28:35;;;;;;;4.20;3.60;;;;;;;;;;5030622;28;20192;-79
2021/08/25 13:31:03;;;;;;;3.95;3.65;;;;;;;;;;5030125;28;20247;-78
2021/08/25 13:33:31;;;;;;;6.32;3.28;;;;;;;;;;5030651;28;20195;-78
2021/08/25 13:35:59;;;;;;;4.40;3.55;;;;;;;;;;5031821;28;20656;-78
2021/08/25 13:38:26;;;;;;;4.20;3.75;;;;;;;;;;5031477;28;20227;-79
2021/08/25 13:40:52;;;;;;;4.03;3.70;;;;;;;;;;5030144;28;20203;-79
2021/08/25 13:43:22;;;;;;;3.83;3.53;;;;;;;;;;5032226;28;20207;-78
2021/08/25 13:45:48;;;;;;;3.72;3.42;;;;;;;;;;5030868;28;20243;-77
2021/08/25 13:48:15;;;;;;;4.03;3.72;;;;;;;;;;5031926;28;20247;-79
2021/08/25 13:50:42;;;;;;;4.55;3.58;;;;;;;;;;5031985;28;20235;-78
2021/08/25 13:53:10;;;;;;;3.80;3.50;;;;;;;;;;5031468;28;20224;-78
2021/08/25 13:55:37;;;;;;;4.88;3.85;;;;;;;;;;5031508;28;20239;-78
2021/08/25 13:58:04;;;;;;;4.10;3.80;;;;;;;;;;5032089;28;20612;-79
2021/08/25 14:00:31;;;;;;;4.25;3.95;;;;;;;;;;5030567;28;25041;-79
2021/08/25 14:02:57;;;;;;;4.30;3.70;;;;;;;;;;5030152;28;20220;-76
2021/08/25 14:05:24;;;;;;;3.78;3.47;;;;;;;;;;5030261;28;20242;-77
2021/08/25 14:07:53;;;;;;;3.75;3.55;;;;;;;;;;5031899;28;20695;-78
2021/08/25 14:10:23;;;;;;;3.35;3.15;;;;;;;;;;5030499;28;20196;-76
2021/08/25 14:12:49;;;;;;;5.03;3.80;;;;;;;;;;5030257;28;20706;-78
2021/08/25 14:15:16;;;;;;;7.35;3.60;;;;;;;;;;5029795;28;20212;-77
2021/08/25 14:17:43;;;;;;;3.88;3.55;;;;;;;;;;5030899;28;20262;-79
2021/08/25 14:20:10;;;;;;;3.78;3.58;;;;;;;;;;5028431;28;20243;-76
2021/08/25 14:22:37;;;;;;;3.78;3.47;;;;;;;;;;5029349;28;20235;-78
2021/08/25 14:25:04;;;;;;;4.00;3.70;;;;;;;;;;5030504;28;20250;-78
2021/08/25 14:27:32;;;;;;;4.15;3.55;;;;;;;;;;5048317;28;20254;-76
2021/08/25 14:29:58;;;;;;;4.20;3.90;;;;;;;;;;5055236;28;20288;-76
2021/08/25 14:32:25;;;;;;;4.15;3.60;;;;;;;;;;5054817;28;20265;-77
2021/08/25 14:34:52;;;;;;;5.43;3.85;;;;;;;;;;5037284;28;20272;-76
2021/08/25 14:37:19;;;;;;;4.10;3.72;;;;;;;;;;5054867;28;20246;-77
2021/08/25 14:39:46;;;;;;;4.20;3.90;;;;;;;;;;5055111;28;20298;-77
2021/08/25 14:42:12;;;;;;;3.65;3.38;;;;;;;;;;5055011;28;20230;-78
2021/08/25 14:44:40;;;;;;;4.47;4.07;;;;;;;;;;5054812;28;20203;-78
2021/08/25 14:47:07;;;;;;;3.85;3.55;;;;;;;;;;5055083;28;20234;-77